createdAt,value
2023-07-04T03:10:24.985Z,99358.24
2023-07-04T03:12:52.363Z,99352.61
2023-07-04T03:15:19.041Z,99353.65
2023-07-04T03:17:49.623Z,99350.08
2023-07-04T03:20:17.247Z,99353.71
2023-07-04T03:22:46.051Z,99362.02
2023-07-04T03:25:16.283Z,99359.48
2023-07-04T03:27:43.747Z,99363.02
2023-07-04T03:30:12.548Z,99364.01
2023-07-04T03:32:40.657Z,99364.17
2023-07-04T03:35:08.615Z,99361.61
2023-07-04T03:37:38.600Z,99367.86
2023-07-04T03:40:10.391Z,99370.68
2023-07-04T03:42:39.413Z,99369.45
2023-07-04T03:45:07.589Z,99371.08
2023-07-04T03:47:34.836Z,99378.52
2023-07-04T03:50:05.119Z,99377.31
2023-07-04T03:52:34.402Z,99374.22
2023-07-04T03:55:03.956Z,99371.49
2023-07-04T03:57:30.987Z,99377.83
2023-07-04T03:59:59.503Z,99378.46
2023-07-04T04:02:26.249Z,99379.75
2023-07-04T04:04:53.290Z,99383.04
2023-07-04T04:07:20.302Z,99379.66
2023-07-04T04:09:47.385Z,99378.05
2023-07-04T04:12:14.220Z,99376.46
2023-07-04T04:14:41.279Z,99374.60
2023-07-04T04:17:12.163Z,99366.16
2023-07-04T04:19:39.078Z,99363.73
2023-07-04T04:22:05.858Z,99368.61
2023-07-04T04:24:33.146Z,99375.23
2023-07-04T04:27:03.891Z,99370.65
2023-07-04T04:29:31.816Z,99370.02
2023-07-04T04:31:58.713Z,99377.16
2023-07-04T04:34:26.330Z,99376.43
2023-07-04T04:36:53.668Z,99371.69
2023-07-04T04:39:23.790Z,99375.35
2023-07-04T04:41:53.215Z,99382.52
2023-07-04T04:44:21.126Z,99383.17
2023-07-04T04:46:50.479Z,99378.13
2023-07-04T04:49:18.005Z,99384.70
2023-07-04T04:51:45.616Z,99383.72
2023-07-04T04:54:14.133Z,99382.89
2023-07-04T04:56:41.043Z,99379.83
2023-07-04T04:59:12.485Z,99371.43
2023-07-04T05:01:39.849Z,99375.08
2023-07-04T05:04:07.158Z,99370.27
2023-07-04T05:06:34.282Z,99367.69
2023-07-04T05:09:01.107Z,99370.62
2023-07-04T05:11:28.191Z,99370.13
2023-07-04T05:13:55.259Z,99371.16
2023-07-04T05:16:22.423Z,99375.11
2023-07-04T05:18:51.812Z,99370.33
2023-07-04T05:21:23.706Z,99373.16
2023-07-04T05:23:52.770Z,99376.10
2023-07-04T05:26:25.378Z,99375.08
2023-07-04T05:28:54.624Z,99372.40
2023-07-04T05:31:27.324Z,99370.81
2023-07-04T05:33:55.736Z,99361.77
2023-07-04T05:36:27.175Z,99360.52
2023-07-04T05:39:00.389Z,99355.45
2023-07-04T05:41:29.378Z,99353.11
2023-07-04T05:43:57.784Z,99352.39
2023-07-04T05:46:30.030Z,99354.61
2023-07-04T05:48:59.323Z,99346.98
2023-07-04T05:51:26.384Z,99346.77
2023-07-04T05:53:53.814Z,99343.55
2023-07-04T05:56:26.747Z,99336.27
2023-07-04T05:58:56.316Z,99334.88
2023-07-04T06:01:30.341Z,99338.47
2023-07-04T06:03:59.661Z,99336.33
2023-07-04T06:06:30.767Z,99332.90
2023-07-04T06:09:03.524Z,99323.66
2023-07-04T06:11:53.950Z,99321.23
2023-07-04T06:14:28.923Z,99326.14
2023-07-04T06:17:00.638Z,99324.81
2023-07-04T06:27:56.482Z,99308.30
2023-07-04T06:30:30.373Z,99316.89
2023-07-04T06:32:59.646Z,99314.92
2023-07-04T06:35:33.632Z,99309.89
2023-07-04T06:38:00.466Z,99309.42
2023-07-04T06:40:27.692Z,99304.15
2023-07-04T06:42:54.488Z,99302.80
2023-07-04T06:45:23.598Z,99296.77
2023-07-04T06:47:50.633Z,99297.29
2023-07-04T06:50:18.110Z,99286.64
2023-07-04T06:52:44.737Z,99282.44
2023-07-04T06:55:12.731Z,99280.95
2023-07-04T06:57:39.539Z,99284.14
2023-07-04T07:00:06.951Z,99286.89
2023-07-04T07:02:35.707Z,99287.96
2023-07-04T07:05:05.712Z,99288.46
2023-07-04T07:07:32.621Z,99286.38
2023-07-04T07:09:59.698Z,99290.40
2023-07-04T07:12:30.799Z,99287.88
2023-07-04T07:14:57.760Z,99283.56
2023-07-04T07:17:26.549Z,99279.64
2023-07-04T07:37:44.482Z,99263.75
2023-07-04T07:40:18.629Z,99255.36
2023-07-04T07:42:46.263Z,99250.25
2023-07-04T07:45:15.542Z,99250.59
2023-07-04T07:47:42.836Z,99245.29
2023-07-04T07:50:09.633Z,99243.19
2023-07-04T07:52:36.558Z,99240.39
2023-07-04T07:55:06.454Z,99243.89
2023-07-04T07:57:32.965Z,99241.97
2023-07-04T08:00:01.854Z,99238.52
2023-07-04T08:02:28.476Z,99236.55
2023-07-04T11:38:17.593Z,99169.35
2023-07-04T11:40:49.589Z,99168.03
2023-07-04T11:43:25.363Z,99174.99
2023-07-04T11:46:03.195Z,99174.20
2023-07-04T11:48:32.868Z,99169.22
2023-07-04T11:51:11.807Z,99170.89
2023-07-04T11:53:49.194Z,99168.67
2023-07-04T11:56:23.834Z,99168.23
2023-07-04T12:16:06.842Z,99154.75
2023-07-04T12:18:38.388Z,99151.21
2023-07-04T12:21:04.906Z,99153.77
2023-07-04T12:23:34.450Z,99156.73
2023-07-04T12:26:01.164Z,99157.91
2023-07-04T12:28:31.859Z,99152.45
2023-07-04T12:33:46.096Z,99155.25
2023-07-04T12:36:20.041Z,99152.72
2023-07-04T12:38:51.410Z,99152.34
2023-07-04T12:41:25.963Z,99153.69
2023-07-04T12:51:44.957Z,99143.79
2023-07-04T12:54:15.747Z,99141.48
2023-07-04T12:56:48.469Z,99147.64
2023-07-04T12:59:36.659Z,99147.48
2023-07-04T13:02:14.505Z,99149.38
2023-07-04T13:04:44.780Z,99150.42
2023-07-04T13:07:14.328Z,99153.06
2023-07-04T13:09:43.413Z,99147.39
2023-07-04T13:27:28.772Z,99162.03
2023-07-04T13:52:34.512Z,99159.05
2023-07-04T13:55:04.470Z,99165.36
2023-07-04T13:57:32.616Z,99160.45
2023-07-04T14:00:02.819Z,99154.14
2023-07-04T14:07:37.072Z,99163.79
2023-07-04T14:10:05.908Z,99159.24
2023-07-04T14:12:33.854Z,99156.55
2023-07-04T16:38:44.949Z,99175.77
2023-07-04T16:41:15.336Z,99172.91
2023-07-04T16:43:43.377Z,99174.70
2023-07-04T16:46:15.140Z,99175.16
2023-07-04T16:48:43.339Z,99174.48
2023-07-04T16:51:11.261Z,99174.80
2023-07-04T16:53:41.657Z,99175.04
2023-07-04T16:56:09.845Z,99177.36
2023-07-04T16:58:40.608Z,99178.20
2023-07-04T17:01:11.342Z,99180.77
2023-07-04T17:03:39.560Z,99181.06
2023-07-04T17:06:09.675Z,99181.59
2023-07-04T17:08:39.613Z,99180.20
2023-07-04T17:11:10.340Z,99186.52
2023-07-04T17:13:41.604Z,99189.50
2023-07-04T17:16:12.825Z,99186.63
2023-07-04T17:18:45.642Z,99187.96
2023-07-04T17:21:13.686Z,99190.43
2023-07-04T17:23:44.377Z,99189.11
2023-07-04T17:26:12.509Z,99194.10
2023-07-04T17:28:40.660Z,99196.34
2023-07-04T17:31:10.381Z,99197.66
2023-07-04T17:33:38.538Z,99197.19
2023-07-04T17:36:09.694Z,99197.24
2023-07-04T17:38:40.409Z,99199.48
2023-07-04T17:41:11.665Z,99199.39
2023-07-04T17:43:41.204Z,99205.33
2023-07-04T17:46:13.688Z,99209.54
2023-07-04T17:48:52.730Z,99211.69
2023-07-04T17:51:23.773Z,99210.14
2023-07-04T17:53:52.400Z,99211.36
2023-07-04T17:56:28.833Z,99215.14
2023-07-04T17:59:00.661Z,99216.90
2023-07-04T18:01:29.514Z,99218.91
2023-07-04T18:03:57.713Z,99222.42
2023-07-04T18:06:27.982Z,99227.75
2023-07-04T18:08:55.951Z,99226.20
2023-07-04T18:11:27.965Z,99227.50
2023-07-04T18:13:58.924Z,99229.13
2023-07-04T18:16:31.508Z,99236.48
2023-07-04T18:19:01.705Z,99238.67
2023-07-04T18:21:34.590Z,99244.88
2023-07-04T18:24:04.284Z,99250.56
2023-07-04T18:26:34.492Z,99250.61
2023-07-04T18:29:08.288Z,99254.71
2023-07-04T18:31:36.728Z,99256.67
2023-07-04T18:34:07.479Z,99256.11
2023-07-04T18:36:37.672Z,99262.55
2023-07-04T18:39:06.976Z,99264.05
2023-07-04T18:41:41.999Z,99264.63
2023-07-04T18:44:11.075Z,99267.91
2023-07-04T18:46:40.997Z,99271.39
2023-07-04T18:49:09.816Z,99275.88
2023-07-04T18:51:40.838Z,99281.88
2023-07-04T18:54:16.271Z,99284.94
2023-07-04T18:56:46.452Z,99285.58
2023-07-04T18:59:14.899Z,99287.93
2023-07-04T19:01:44.286Z,99288.91
2023-07-04T19:04:12.459Z,99291.82
2023-07-04T19:06:43.498Z,99295.02
2023-07-04T19:09:11.752Z,99299.52
2023-07-04T19:11:45.710Z,99299.34
2023-07-04T19:14:24.506Z,99308.26
2023-07-04T19:16:59.616Z,99313.77
2023-07-04T19:19:33.736Z,99314.00
2023-07-04T19:22:09.156Z,99311.70
2023-07-04T19:24:41.960Z,99311.48
2023-07-04T19:27:15.746Z,99315.02
2023-07-04T19:29:50.476Z,99319.73
2023-07-04T19:32:18.917Z,99322.14
2023-07-04T19:34:50.170Z,99323.98
2023-07-04T19:37:19.749Z,99322.20
2023-07-04T19:39:48.174Z,99327.18
2023-07-04T19:42:16.199Z,99331.89
2023-07-04T19:44:44.462Z,99338.03
2023-07-04T19:47:12.715Z,99342.85
2023-07-04T19:49:40.985Z,99342.79
2023-07-04T20:07:08.009Z,99357.10
2023-07-04T20:09:35.836Z,99359.21
2023-07-04T20:12:07.376Z,99361.89
2023-07-04T20:14:35.355Z,99358.23
2023-07-04T20:17:03.383Z,99362.67
2023-07-04T20:19:31.334Z,99366.02
